Etusivu
METAR-TAF:

METAR-TAF

Lentoasemat :

Palanga, Liettua

Leveyspiiri: 55-55-12N, Pituuspiiri: 021-03E, korkeus merenpinnasta: 10 m

Tämänhetkinen sää

Tämä raportti tehtiin 8 minuuttia sitten, kello 13.50 UTC
Tuuli 8 kn pohjoisesta, vaihdellen luoteen ja koillisen välillä
Lämpötila 16°C
Kosteus 63%
Ilmanpaine 1026 hPa
Näkyvyys 10 km tai enemmän
ei pilviä alle 1500 m:ssä eikä cumulonimbus-pilviä

METAR: EYPA 241350Z 35008KT 310V040 CAVOK 16/09 Q1026

Aika: 16:58 (13:58 UTC)

Sääennuste

Tämä raportti tehtiin 2 tuntia ja 55 minuuttia sitten, kello 11.03 UTC
Ennuste voimassa 24. päivästä klo 12 UTC - 25. päivään klo 12 UTC
Tuuli 4 kn eri suunnista
Näkyvyys: 9000 m
Ajoittain
24. päivästä klo 12 UTC - 24. päivään klo 17 UTC
Tuuli 14 kn pohjoisen/luoteesta
Tulossa
25. päivästä klo 06 UTC - 25. päivään klo 07 UTC
Hajanaisia pilviä 4000 ft:n korkeudessa

TAF: EYPA 241103Z 2412/2512 VRB04KT 9000 NSC TEMPO 2412/2417 33014KT BECMG 2506/2507 SCT040

Säähavainnot ja -ennusteet yli 4000 lentoasemalta (METAR- ja TAF-raportit).

Käytössä olevat sääasemat on merkitty karttaan keltaisilla ja punaisilla pisteillä.

Aseta hiiri pisteen päälle nähdäksesi sääaseman nimen.

Klikkaa sitten nähdäksesi säähavainnot ja -ennusteet.

Kartan vaihtaminen: klikkaa mustalla rastilla varustettuja vihreitä pisteitä, niin voit zoomata sisään; viivalla varustettua vihreää pistettä, niin voit zoomata ulos tai vihreitä nuolia, niin pääset viereisille kartoille.


METAR-TAF: